aviador You're here:

KTDR Decoded Metar

in
Report Time2017-11-23 21:56:00
UTC Time2017-11-23 22:04:13
Flight Rules ifr IFR
Wind050° at 04 kt
W.Rank050° ranks 10
Current wind is below 050° avg. (5.8)
Visibility4023 m
Phenomena:Mist
Clouds:Broken 042 Hf
Expected CloudBase > 2,400 ft AGL from Temp-Dew spread
Ceiling4,200 ft
Temp20°C
Dew Point14°C (69% RH)
AAT19.9°C
QNH1013 hPa
Raw Report
KTDR 232156Z AUTO 05004KT 2 1/2SM BR BKN042 20/14 A2990 RMK AO2
VIS 2 1/2V10 SLP129 T01960144 $=

Extra information for KTDR:More info

Social comments